Time;durP1;ratioP1;P1;durP2;ratioP2;P2;SDS_P1;SDS_P2;PMS_P1;PMS_P2;Temp;Humidity;BMP_temperature;BMP_pressure;BME280_temperature;BME280_humidity;BME280_pressure;Samples;Min_cycle;Max_cycle;Signal;HPM_P1;HPM_P2
2024/03/08 00:00:14;;;;;;;69.43;49.22;;;1.50;99.90;;;;;;4969061;28;20147;-70
2024/03/08 00:02:47;;;;;;;71.10;47.90;;;1.50;99.90;;;;;;4988500;28;20052;-70
2024/03/08 00:05:15;;;;;;;68.90;48.75;;;1.50;99.90;;;;;;4983359;28;20073;-70
2024/03/08 00:07:43;;;;;;;72.57;50.70;;;1.50;99.90;;;;;;4975901;28;20047;-70
2024/03/08 00:10:12;;;;;;;73.15;47.30;;;1.40;99.90;;;;;;4976882;28;20766;-70
2024/03/08 00:12:43;;;;;;;74.22;52.33;;;1.40;99.90;;;;;;4975652;28;20074;-69
2024/03/08 00:15:13;;;;;;;82.40;52.67;;;1.40;99.90;;;;;;4968297;28;20050;-70
2024/03/08 00:17:44;;;;;;;68.63;49.28;;;1.40;99.90;;;;;;4973567;28;20061;-70
2024/03/08 00:20:13;;;;;;;68.63;47.05;;;1.30;99.90;;;;;;4972018;28;20041;-68
2024/03/08 00:22:41;;;;;;;78.25;52.10;;;1.30;99.90;;;;;;4975871;28;20137;-70
2024/03/08 00:25:08;;;;;;;73.70;50.22;;;1.30;99.90;;;;;;4969543;28;21275;-69
2024/03/08 00:27:39;;;;;;;72.85;51.15;;;1.30;99.90;;;;;;4978873;28;20050;-69
2024/03/08 00:30:07;;;;;;;77.60;52.95;;;1.30;99.90;;;;;;4963135;28;20050;-70
2024/03/08 00:32:35;;;;;;;70.50;51.58;;;1.30;99.90;;;;;;4989651;28;20743;-69
2024/03/08 00:35:03;;;;;;;73.85;50.40;;;1.30;99.90;;;;;;4963069;28;20050;-70
2024/03/08 00:37:31;;;;;;;76.85;51.53;;;1.40;99.90;;;;;;4970198;28;20152;-70
2024/03/08 00:39:58;;;;;;;69.05;49.75;;;1.30;99.90;;;;;;4954906;28;20118;-70
2024/03/08 00:42:25;;;;;;;71.25;50.13;;;1.30;99.90;;;;;;4966831;28;20038;-69
2024/03/08 00:44:52;;;;;;;68.85;50.33;;;1.30;99.90;;;;;;4971572;28;20146;-69
2024/03/08 00:47:19;;;;;;;78.03;52.78;;;1.30;99.90;;;;;;4966816;28;20190;-69
2024/03/08 00:49:46;;;;;;;70.30;48.25;;;1.30;99.90;;;;;;4972119;28;20046;-70
2024/03/08 00:52:14;;;;;;;74.72;52.22;;;1.30;99.90;;;;;;4976289;28;20231;-70
2024/03/08 00:54:43;;;;;;;68.50;49.35;;;1.30;99.90;;;;;;4970534;28;20047;-69
2024/03/08 00:57:11;;;;;;;69.97;52.35;;;1.30;99.90;;;;;;4969059;28;21872;-69
2024/03/08 00:59:39;;;;;;;80.95;51.13;;;1.30;99.90;;;;;;4977847;28;20053;-70
2024/03/08 01:02:06;;;;;;;76.22;52.72;;;1.30;99.90;;;;;;4968132;28;20073;-69
2024/03/08 01:04:33;;;;;;;67.93;49.65;;;1.20;99.90;;;;;;4975002;28;20061;-70
2024/03/08 01:07:01;;;;;;;66.85;49.90;;;1.20;99.90;;;;;;4984193;28;20043;-70
2024/03/08 01:09:28;;;;;;;73.38;50.67;;;1.20;99.90;;;;;;4973676;28;20137;-69
2024/03/08 01:11:56;;;;;;;73.03;50.45;;;1.20;99.90;;;;;;4968771;28;20038;-70
2024/03/08 01:14:25;;;;;;;78.78;51.15;;;1.10;99.90;;;;;;4969075;28;20062;-68
2024/03/08 01:16:52;;;;;;;67.10;50.55;;;1.10;99.90;;;;;;4969760;28;20038;-68
2024/03/08 01:19:20;;;;;;;75.47;52.47;;;1.20;99.90;;;;;;4972514;28;20702;-70
2024/03/08 01:21:47;;;;;;;73.55;50.25;;;1.10;99.90;;;;;;4967734;28;20076;-70
2024/03/08 01:24:14;;;;;;;77.65;52.08;;;1.00;99.90;;;;;;4966681;28;20887;-69
2024/03/08 01:26:41;;;;;;;77.30;52.80;;;1.00;99.90;;;;;;4975880;28;20058;-69
2024/03/08 01:29:08;;;;;;;74.40;51.15;;;1.10;99.90;;;;;;4968048;28;20039;-70
2024/03/08 01:31:36;;;;;;;76.05;52.00;;;1.00;99.90;;;;;;4963964;28;20050;-69
2024/03/08 01:34:04;;;;;;;72.45;50.97;;;1.10;99.90;;;;;;4961592;28;20105;-69
2024/03/08 01:36:31;;;;;;;70.22;51.35;;;1.10;99.90;;;;;;4980386;28;20047;-70
2024/03/08 01:38:59;;;;;;;71.18;51.03;;;1.00;99.90;;;;;;4972049;28;20702;-69
2024/03/08 01:41:29;;;;;;;79.68;52.85;;;1.00;99.90;;;;;;4973336;28;20034;-70
2024/03/08 01:43:57;;;;;;;75.13;51.80;;;1.00;99.90;;;;;;4962664;28;20050;-70
2024/03/08 01:46:24;;;;;;;76.75;50.03;;;1.00;99.90;;;;;;4970591;28;20124;-68
2024/03/08 01:48:51;;;;;;;81.22;54.15;;;1.10;99.90;;;;;;4977482;28;20038;-69
2024/03/08 01:51:19;;;;;;;75.93;53.33;;;1.00;99.90;;;;;;4979698;28;20050;-69
2024/03/08 01:53:48;;;;;;;80.32;55.28;;;1.00;99.90;;;;;;4973217;28;20038;-71
2024/03/08 01:56:18;;;;;;;76.72;48.05;;;1.00;99.90;;;;;;4965384;28;20144;-69
2024/03/08 01:58:47;;;;;;;79.65;51.97;;;1.00;99.90;;;;;;4974579;28;20054;-69
2024/03/08 02:01:15;;;;;;;72.05;49.03;;;1.00;99.90;;;;;;4967619;28;20843;-70
2024/03/08 02:03:44;;;;;;;69.90;48.90;;;0.90;99.90;;;;;;4967305;28;20850;-69
2024/03/08 02:06:14;;;;;;;70.35;51.05;;;0.90;99.90;;;;;;4979500;28;20100;-69
2024/03/08 02:08:45;;;;;;;79.30;52.67;;;0.90;99.90;;;;;;4971784;28;20529;-69
2024/03/08 02:11:14;;;;;;;75.68;49.20;;;0.90;99.90;;;;;;4973373;28;21204;-70
2024/03/08 02:13:41;;;;;;;76.43;53.70;;;1.00;99.90;;;;;;4972106;28;20049;-69
2024/03/08 02:16:09;;;;;;;79.15;53.45;;;0.90;99.90;;;;;;4967625;28;20116;-70
2024/03/08 02:18:36;;;;;;;81.45;53.13;;;0.90;99.90;;;;;;4972871;28;20050;-68
2024/03/08 02:21:05;;;;;;;76.88;53.80;;;0.90;99.90;;;;;;4971503;28;20054;-70
2024/03/08 02:23:33;;;;;;;83.18;53.10;;;0.90;99.90;;;;;;4969751;28;20632;-69
2024/03/08 02:26:01;;;;;;;75.88;51.45;;;0.90;99.90;;;;;;4968718;28;20160;-70
2024/03/08 02:28:29;;;;;;;81.60;51.70;;;0.90;99.90;;;;;;4973556;28;20127;-68
2024/03/08 02:30:56;;;;;;;76.97;52.70;;;0.90;99.90;;;;;;4967121;28;20081;-69
2024/03/08 02:33:27;;;;;;;79.75;52.72;;;0.90;99.90;;;;;;4960092;28;20054;-69
2024/03/08 02:35:58;;;;;;;80.20;51.60;;;0.80;99.90;;;;;;4965234;28;20050;-70
2024/03/08 02:38:25;;;;;;;78.28;53.97;;;0.80;99.90;;;;;;4973979;28;20760;-69
2024/03/08 02:40:53;;;;;;;76.72;52.10;;;0.80;99.90;;;;;;4978524;28;20026;-68
2024/03/08 02:43:22;;;;;;;83.65;51.90;;;0.70;99.90;;;;;;4990308;28;20066;-70
2024/03/08 02:45:54;;;;;;;85.43;54.03;;;0.70;99.90;;;;;;4974901;28;20045;-70
2024/03/08 02:48:23;;;;;;;80.57;52.13;;;0.70;99.90;;;;;;4956892;28;20046;-70
2024/03/08 02:50:51;;;;;;;84.85;54.58;;;0.70;99.90;;;;;;4969402;28;20069;-69
2024/03/08 02:53:18;;;;;;;88.53;54.90;;;0.70;99.90;;;;;;4968146;28;20085;-69
2024/03/08 02:55:46;;;;;;;79.07;53.08;;;0.70;99.90;;;;;;4970088;28;20050;-70
2024/03/08 02:58:14;;;;;;;85.35;54.85;;;0.60;99.90;;;;;;4966802;28;20063;-69
2024/03/08 03:00:44;;;;;;;88.10;57.40;;;0.70;99.90;;;;;;4952922;28;20058;-70
2024/03/08 03:03:12;;;;;;;80.38;54.25;;;0.60;99.90;;;;;;4968461;28;20046;-70
2024/03/08 03:05:41;;;;;;;83.47;54.50;;;0.60;99.90;;;;;;4966909;28;20042;-69
2024/03/08 03:08:16;;;;;;;84.38;55.78;;;0.50;99.90;;;;;;4968071;28;20154;-71
2024/03/08 03:10:43;;;;;;;87.43;55.50;;;0.50;99.90;;;;;;4970055;28;20047;-70
2024/03/08 03:13:12;;;;;;;85.03;55.05;;;0.50;99.90;;;;;;4961702;28;20054;-69
2024/03/08 03:15:41;;;;;;;82.07;54.47;;;0.40;99.90;;;;;;4949832;28;20038;-71
2024/03/08 03:18:08;;;;;;;83.07;54.53;;;0.50;99.90;;;;;;4971637;28;20049;-70
2024/03/08 03:20:42;;;;;;;88.10;56.42;;;0.50;99.90;;;;;;4972901;28;20053;-70
2024/03/08 03:23:13;;;;;;;89.80;57.92;;;0.40;99.90;;;;;;4972195;28;20055;-68
2024/03/08 03:25:42;;;;;;;87.05;55.95;;;0.30;99.90;;;;;;4979717;28;20124;-70
2024/03/08 03:28:14;;;;;;;85.38;55.72;;;0.40;99.90;;;;;;4970299;28;20050;-69
2024/03/08 03:30:42;;;;;;;92.15;57.42;;;0.30;99.90;;;;;;4971070;28;20055;-69
2024/03/08 03:33:09;;;;;;;86.50;55.72;;;0.30;99.90;;;;;;4973892;28;20054;-69
2024/03/08 03:35:37;;;;;;;88.65;56.63;;;0.30;99.90;;;;;;4966900;28;20059;-69
2024/03/08 03:38:08;;;;;;;90.63;55.05;;;0.20;99.90;;;;;;4978747;28;20382;-70
2024/03/08 03:40:38;;;;;;;92.40;56.63;;;0.20;99.90;;;;;;4962183;28;20050;-70
2024/03/08 03:43:07;;;;;;;83.55;54.92;;;0.20;99.90;;;;;;4976276;28;20046;-70
2024/03/08 03:45:35;;;;;;;90.75;56.78;;;0.20;99.90;;;;;;4967040;28;20671;-70
2024/03/08 03:48:09;;;;;;;88.88;55.60;;;0.20;99.90;;;;;;4975906;28;20054;-70
2024/03/08 03:50:38;;;;;;;82.63;55.38;;;0.10;99.90;;;;;;4969903;28;20053;-69
2024/03/08 03:53:08;;;;;;;94.07;58.85;;;0.10;99.90;;;;;;4969051;28;20126;-70
2024/03/08 03:55:38;;;;;;;93.60;57.47;;;0.10;99.90;;;;;;4966876;28;20070;-70
2024/03/08 03:58:06;;;;;;;88.25;56.20;;;0.10;99.90;;;;;;4966332;28;20054;-69
2024/03/08 04:00:34;;;;;;;90.43;57.45;;;-0.10;99.90;;;;;;4959051;28;20411;-70
2024/03/08 04:03:00;;;;;;;98.63;58.65;;;-0.10;99.90;;;;;;4968936;28;20052;-68
2024/03/08 04:05:28;;;;;;;90.30;56.40;;;-0.10;99.90;;;;;;4972430;28;20051;-69
2024/03/08 04:07:56;;;;;;;95.32;56.78;;;-0.10;99.90;;;;;;4972132;28;20071;-70
2024/03/08 04:10:24;;;;;;;97.93;57.60;;;-0.10;99.90;;;;;;4975058;28;20072;-70
2024/03/08 04:12:51;;;;;;;92.38;57.40;;;-0.10;99.90;;;;;;4969626;28;20739;-69
2024/03/08 04:15:18;;;;;;;97.43;58.30;;;-0.10;99.90;;;;;;4971975;28;20618;-69
2024/03/08 04:17:45;;;;;;;92.20;56.97;;;-0.20;99.90;;;;;;4971517;28;20039;-69
2024/03/08 04:20:14;;;;;;;91.15;55.30;;;-0.20;99.90;;;;;;4970500;28;20649;-69
2024/03/08 04:22:41;;;;;;;89.88;54.40;;;-0.10;99.90;;;;;;4972721;28;20038;-70
2024/03/08 04:25:09;;;;;;;86.28;55.47;;;0.00;99.90;;;;;;4969861;28;20042;-70
2024/03/08 04:27:36;;;;;;;85.80;54.35;;;0.00;99.90;;;;;;4965201;28;20046;-69
2024/03/08 04:30:04;;;;;;;89.72;52.97;;;0.10;99.90;;;;;;4966850;28;20113;-68
2024/03/08 04:32:32;;;;;;;90.45;54.88;;;0.10;99.90;;;;;;4973416;28;20058;-67
2024/03/08 04:35:01;;;;;;;68.28;46.03;;;0.10;99.90;;;;;;4950510;28;20050;-70
2024/03/08 04:37:32;;;;;;;87.60;55.10;;;0.20;99.90;;;;;;4969320;28;20125;-68
2024/03/08 04:39:59;;;;;;;79.93;51.05;;;0.20;99.90;;;;;;4963978;28;20046;-69
2024/03/08 04:42:29;;;;;;;83.35;53.72;;;0.20;99.90;;;;;;4953522;28;20039;-70
2024/03/08 04:44:57;;;;;;;75.30;49.40;;;0.20;99.90;;;;;;4969855;28;20057;-71
2024/03/08 04:47:25;;;;;;;93.15;55.38;;;0.20;99.90;;;;;;4970147;28;20448;-69
2024/03/08 04:49:53;;;;;;;83.85;55.15;;;0.20;99.90;;;;;;4964509;28;20615;-70
2024/03/08 04:52:21;;;;;;;93.18;55.08;;;0.20;99.90;;;;;;4968572;28;20497;-70
2024/03/08 04:54:49;;;;;;;83.72;54.08;;;0.20;99.90;;;;;;4969923;28;20046;-68
2024/03/08 04:57:18;;;;;;;80.07;51.25;;;0.30;99.90;;;;;;4947455;28;20051;-69
2024/03/08 04:59:46;;;;;;;85.82;53.50;;;0.30;99.90;;;;;;4966399;28;20054;-68
2024/03/08 05:02:13;;;;;;;87.63;53.67;;;0.30;99.90;;;;;;4956449;28;20689;-67
2024/03/08 05:04:42;;;;;;;85.55;54.42;;;0.30;99.90;;;;;;4965361;28;20073;-70
2024/03/08 05:07:09;;;;;;;84.18;53.85;;;0.30;99.90;;;;;;4985402;28;20042;-70
2024/03/08 05:09:37;;;;;;;87.82;52.42;;;0.30;99.90;;;;;;4980004;28;20577;-68
2024/03/08 05:12:04;;;;;;;82.18;52.22;;;0.30;99.90;;;;;;4970893;28;20755;-68
2024/03/08 05:14:32;;;;;;;85.55;54.53;;;0.20;99.90;;;;;;4954718;28;20051;-70
2024/03/08 05:17:00;;;;;;;88.13;52.35;;;0.20;99.90;;;;;;4970072;28;20038;-69
2024/03/08 05:19:30;;;;;;;88.13;53.53;;;0.30;99.90;;;;;;4969114;28;20121;-69
2024/03/08 05:22:01;;;;;;;90.72;56.10;;;0.20;99.90;;;;;;4954462;28;20156;-69
2024/03/08 05:24:29;;;;;;;86.07;57.03;;;0.20;99.90;;;;;;4930466;28;20043;-69
2024/03/08 05:26:59;;;;;;;85.80;53.42;;;0.20;99.90;;;;;;4963052;28;20038;-69
2024/03/08 05:29:27;;;;;;;89.70;56.38;;;0.20;99.90;;;;;;4970649;28;21241;-70
2024/03/08 05:31:54;;;;;;;97.38;59.50;;;0.10;99.90;;;;;;4952509;28;20598;-69
2024/03/08 05:34:21;;;;;;;89.20;57.53;;;0.10;99.90;;;;;;4944025;28;20081;-69
2024/03/08 05:36:50;;;;;;;90.68;57.10;;;0.10;99.90;;;;;;4960404;28;20586;-70
2024/03/08 05:39:18;;;;;;;92.90;58.08;;;0.20;99.90;;;;;;4967268;28;20049;-69
2024/03/08 05:41:48;;;;;;;92.38;55.03;;;0.10;99.90;;;;;;4971411;28;20042;-69
2024/03/08 05:44:18;;;;;;;87.95;57.63;;;0.10;99.90;;;;;;4967791;28;20082;-68
2024/03/08 05:46:48;;;;;;;95.32;55.67;;;0.10;99.90;;;;;;4950557;28;20046;-67
2024/03/08 05:49:15;;;;;;;87.72;56.75;;;0.10;99.90;;;;;;4948072;28;20057;-68
2024/03/08 05:51:43;;;;;;;94.65;57.65;;;0.10;99.90;;;;;;4971576;28;20053;-70
2024/03/08 05:54:12;;;;;;;98.85;57.47;;;0.10;99.90;;;;;;4967377;28;20061;-68
2024/03/08 05:56:44;;;;;;;97.07;60.33;;;0.10;99.90;;;;;;4967303;28;20132;-69
2024/03/08 05:59:13;;;;;;;90.38;56.72;;;0.10;99.90;;;;;;4966464;28;20181;-68
2024/03/08 06:01:41;;;;;;;90.53;55.95;;;0.00;99.90;;;;;;4973495;28;20486;-67
2024/03/08 06:04:10;;;;;;;96.25;56.40;;;-0.10;99.90;;;;;;4968628;28;20488;-68
2024/03/08 06:06:39;;;;;;;86.95;56.03;;;-0.10;99.90;;;;;;4972803;28;20061;-70
2024/03/08 06:09:22;;;;;;;94.10;58.85;;;0.00;99.90;;;;;;4970924;28;20200;-68
2024/03/08 06:11:54;;;;;;;101.32;65.25;;;-0.10;99.90;;;;;;4973220;28;20061;-69
2024/03/08 06:14:23;;;;;;;96.93;63.00;;;-0.10;99.90;;;;;;4945554;28;20150;-69
2024/03/08 06:16:50;;;;;;;93.50;57.25;;;-0.10;99.90;;;;;;4964897;28;20141;-69
2024/03/08 06:19:17;;;;;;;94.53;60.65;;;0.00;99.90;;;;;;4970413;28;20058;-69
2024/03/08 06:21:45;;;;;;;98.40;61.08;;;-0.10;99.90;;;;;;4970709;28;20092;-68
2024/03/08 06:24:12;;;;;;;103.90;64.78;;;-0.10;99.90;;;;;;4984520;28;20056;-67
2024/03/08 06:26:40;;;;;;;93.57;59.60;;;0.00;99.90;;;;;;4964023;28;20050;-68
2024/03/08 06:29:08;;;;;;;93.57;61.72;;;0.00;99.90;;;;;;4954267;28;20081;-69
2024/03/08 06:31:38;;;;;;;97.38;59.85;;;0.00;99.90;;;;;;4943932;28;20543;-69
2024/03/08 06:34:07;;;;;;;97.65;62.67;;;0.00;99.90;;;;;;4946654;28;20068;-70
2024/03/08 06:36:35;;;;;;;98.75;61.22;;;0.10;99.90;;;;;;4965849;28;20042;-69
2024/03/08 06:39:08;;;;;;;92.68;58.90;;;0.10;99.90;;;;;;4966777;28;20133;-68
2024/03/08 06:41:37;;;;;;;97.03;62.83;;;0.10;99.90;;;;;;4969010;28;20054;-68
2024/03/08 06:44:05;;;;;;;105.20;64.57;;;0.30;99.90;;;;;;4971545;28;20116;-69
2024/03/08 06:46:32;;;;;;;96.05;61.17;;;0.10;99.90;;;;;;4964375;28;20051;-69
2024/03/08 06:48:59;;;;;;;95.60;62.17;;;0.10;99.90;;;;;;4967830;28;20054;-70
2024/03/08 06:51:27;;;;;;;99.93;63.85;;;0.10;99.90;;;;;;4967293;28;20145;-69
2024/03/08 06:53:54;;;;;;;101.90;63.20;;;0.20;99.90;;;;;;4966281;28;20137;-69
2024/03/08 06:56:22;;;;;;;101.80;63.42;;;0.20;99.90;;;;;;4972325;28;20057;-69
2024/03/08 06:58:50;;;;;;;102.40;65.68;;;0.20;99.90;;;;;;4972172;28;20058;-69
2024/03/08 07:01:17;;;;;;;99.10;63.10;;;0.20;99.90;;;;;;4968249;28;20531;-69
2024/03/08 07:03:44;;;;;;;95.40;62.05;;;0.20;99.90;;;;;;4968318;28;20050;-69
2024/03/08 07:06:12;;;;;;;98.00;64.95;;;0.20;99.90;;;;;;4963074;28;20046;-68
2024/03/08 07:08:39;;;;;;;98.72;59.63;;;0.30;99.90;;;;;;4967743;28;20132;-68
2024/03/08 07:11:07;;;;;;;97.88;63.03;;;0.40;99.90;;;;;;4968302;28;20116;-69
2024/03/08 07:13:34;;;;;;;91.97;63.28;;;0.50;99.90;;;;;;4963906;28;20156;-70
2024/03/08 07:16:01;;;;;;;93.13;61.22;;;0.60;99.90;;;;;;4973582;28;20053;-68
2024/03/08 07:18:29;;;;;;;96.25;61.45;;;0.60;99.90;;;;;;4950086;28;20057;-70
2024/03/08 07:20:57;;;;;;;89.53;59.22;;;0.70;99.90;;;;;;4971445;28;20077;-69
2024/03/08 07:26:10;;;;;;;93.47;61.05;;;0.80;99.90;;;;;;4964298;28;20050;-70
2024/03/08 07:28:38;;;;;;;90.18;61.35;;;1.00;99.90;;;;;;4969270;28;20050;-68
2024/03/08 07:33:41;;;;;;;87.35;57.17;;;1.10;99.90;;;;;;4966073;28;20066;-69
2024/03/08 07:36:08;;;;;;;70.45;49.17;;;1.20;99.90;;;;;;4968711;28;20756;-68
2024/03/08 07:38:35;;;;;;;83.45;58.33;;;1.20;99.90;;;;;;4964947;28;20049;-68
2024/03/08 07:41:03;;;;;;;83.75;59.50;;;1.20;99.90;;;;;;4975505;28;20046;-71
2024/03/08 07:43:32;;;;;;;79.15;56.00;;;1.20;99.90;;;;;;4952874;28;20042;-69
2024/03/08 07:46:00;;;;;;;81.70;58.53;;;1.40;99.90;;;;;;4962424;28;20139;-69
2024/03/08 07:48:28;;;;;;;89.82;62.20;;;1.40;99.90;;;;;;4962789;28;20065;-69
2024/03/08 07:50:55;;;;;;;95.75;63.83;;;1.50;99.90;;;;;;4969342;28;20050;-68
2024/03/08 07:53:26;;;;;;;89.90;62.28;;;1.50;99.90;;;;;;4973663;28;20470;-69
2024/03/08 07:55:53;;;;;;;89.18;62.85;;;1.60;99.90;;;;;;4963906;28;20057;-69
2024/03/08 07:58:20;;;;;;;81.13;55.47;;;1.60;99.90;;;;;;4964970;28;20054;-69
2024/03/08 08:00:48;;;;;;;86.63;61.42;;;1.60;99.90;;;;;;4970442;28;20532;-70
2024/03/08 08:03:16;;;;;;;91.22;61.95;;;1.70;99.90;;;;;;4975070;28;20046;-67
2024/03/08 08:05:43;;;;;;;91.63;63.28;;;1.80;99.90;;;;;;4965144;28;20051;-68
2024/03/08 08:08:10;;;;;;;89.50;62.08;;;2.00;99.90;;;;;;4975855;28;20038;-69
2024/03/08 08:10:38;;;;;;;84.53;59.20;;;2.00;99.90;;;;;;4969801;28;20057;-70
2024/03/08 08:13:06;;;;;;;79.18;59.15;;;2.20;99.90;;;;;;4967863;28;20058;-71
2024/03/08 08:15:34;;;;;;;85.18;61.55;;;2.40;99.90;;;;;;4971092;28;20047;-70
2024/03/08 08:18:05;;;;;;;71.82;55.20;;;2.70;99.90;;;;;;4979335;28;20046;-70
2024/03/08 08:20:32;;;;;;;80.05;60.03;;;2.90;99.90;;;;;;4971297;28;20725;-70
2024/03/08 08:22:59;;;;;;;80.35;61.67;;;3.10;99.90;;;;;;4975211;28;20053;-71
2024/03/08 08:25:27;;;;;;;77.80;58.40;;;3.00;99.90;;;;;;4971220;28;20039;-72
2024/03/08 08:27:54;;;;;;;72.03;57.33;;;3.20;99.90;;;;;;4965122;28;20070;-70
2024/03/08 08:30:22;;;;;;;74.13;58.97;;;3.50;99.90;;;;;;4966434;28;20042;-72
2024/03/08 08:32:49;;;;;;;76.15;60.58;;;3.60;99.90;;;;;;4971257;28;20137;-69
2024/03/08 08:35:18;;;;;;;66.20;55.95;;;3.70;99.90;;;;;;4962955;28;20050;-67
2024/03/08 08:37:45;;;;;;;74.93;59.50;;;3.90;99.90;;;;;;4971367;28;20069;-68
2024/03/08 08:40:17;;;;;;;73.32;56.80;;;3.90;99.90;;;;;;4975481;28;20977;-68
2024/03/08 08:42:45;;;;;;;64.32;48.10;;;4.00;99.90;;;;;;4971733;28;20043;-69
2024/03/08 08:45:17;;;;;;;72.00;55.70;;;4.10;99.90;;;;;;4971277;28;20060;-70
2024/03/08 08:47:52;;;;;;;71.57;56.83;;;4.20;99.90;;;;;;4975885;28;20633;-68
2024/03/08 08:50:26;;;;;;;62.63;51.95;;;4.40;99.90;;;;;;4949326;28;20046;-68
2024/03/08 08:52:54;;;;;;;72.95;55.53;;;4.50;99.90;;;;;;4970787;28;20046;-68
2024/03/08 08:55:25;;;;;;;64.22;53.25;;;4.40;99.90;;;;;;4972764;28;20068;-69
2024/03/08 08:57:53;;;;;;;69.05;56.33;;;4.30;99.90;;;;;;4968073;28;20495;-69
2024/03/08 09:00:21;;;;;;;68.70;58.13;;;4.60;99.90;;;;;;4972734;28;20057;-69
2024/03/08 09:02:48;;;;;;;65.90;58.70;;;4.80;99.90;;;;;;4977563;28;20050;-70
2024/03/08 09:05:16;;;;;;;61.67;51.90;;;4.90;99.90;;;;;;4971436;28;20105;-69
2024/03/08 09:07:47;;;;;;;68.03;55.72;;;5.20;99.90;;;;;;4969751;28;20039;-69
2024/03/08 09:10:14;;;;;;;64.20;55.40;;;5.10;99.90;;;;;;4970025;28;20124;-68
2024/03/08 09:12:44;;;;;;;72.63;57.35;;;5.20;99.90;;;;;;4966885;28;20030;-68
2024/03/08 09:15:11;;;;;;;71.15;59.08;;;5.10;99.90;;;;;;4972927;28;20137;-71
2024/03/08 09:17:40;;;;;;;62.78;56.05;;;5.30;99.90;;;;;;4968104;28;20062;-69
2024/03/08 09:20:10;;;;;;;65.22;57.13;;;5.30;99.90;;;;;;4955618;28;20455;-68
2024/03/08 09:22:37;;;;;;;68.88;54.88;;;5.60;99.90;;;;;;4978373;28;20042;-70
2024/03/08 09:25:05;;;;;;;70.05;60.10;;;5.30;99.90;;;;;;4973581;28;20050;-69
2024/03/08 09:27:33;;;;;;;66.03;58.85;;;5.40;99.90;;;;;;4964982;28;20042;-70
2024/03/08 09:30:06;;;;;;;68.68;61.20;;;5.10;99.90;;;;;;4967496;28;20505;-70
2024/03/08 09:32:34;;;;;;;66.10;58.92;;;5.40;99.90;;;;;;4971868;28;20538;-69
2024/03/08 09:35:02;;;;;;;61.50;54.65;;;5.30;99.90;;;;;;4969610;28;20138;-70
2024/03/08 09:37:30;;;;;;;71.60;64.07;;;5.40;99.90;;;;;;4965540;28;20084;-69
2024/03/08 09:39:59;;;;;;;64.68;57.85;;;5.70;99.90;;;;;;4973871;28;20743;-70
2024/03/08 09:42:26;;;;;;;66.45;58.75;;;6.20;99.90;;;;;;4966839;28;20049;-70
2024/03/08 09:44:53;;;;;;;69.10;61.70;;;5.90;99.90;;;;;;4970619;28;21352;-70
2024/03/08 09:47:24;;;;;;;71.82;64.35;;;5.80;99.90;;;;;;4977483;28;20047;-68
2024/03/08 09:49:53;;;;;;;65.63;58.85;;;5.70;99.90;;;;;;4960719;28;20047;-71
2024/03/08 09:52:21;;;;;;;67.68;60.78;;;5.80;99.90;;;;;;4975796;28;20145;-71
2024/03/08 09:54:49;;;;;;;70.10;62.60;;;5.90;99.90;;;;;;4967450;28;20769;-71
2024/03/08 09:57:18;;;;;;;68.35;61.05;;;5.90;99.90;;;;;;4968912;28;20035;-70
2024/03/08 09:59:48;;;;;;;68.88;61.92;;;6.20;99.90;;;;;;4972082;28;20062;-70
2024/03/08 10:02:16;;;;;;;64.53;57.88;;;6.20;99.90;;;;;;4959592;28;20622;-69
2024/03/08 10:04:46;;;;;;;71.38;64.18;;;5.90;99.90;;;;;;4950003;28;20495;-70
2024/03/08 10:07:14;;;;;;;71.20;63.38;;;6.20;99.90;;;;;;4957901;28;20069;-70
2024/03/08 10:09:47;;;;;;;71.85;64.50;;;6.30;99.90;;;;;;4964585;28;20117;-70
2024/03/08 10:12:19;;;;;;;69.63;62.30;;;6.20;99.90;;;;;;4974094;28;20046;-70
2024/03/08 10:14:46;;;;;;;67.55;60.45;;;6.40;99.90;;;;;;4969310;28;20229;-70
2024/03/08 10:17:13;;;;;;;69.18;61.97;;;6.00;99.90;;;;;;4967881;28;20496;-70
2024/03/08 10:19:51;;;;;;;61.15;54.85;;;6.20;99.90;;;;;;4975354;28;20045;-71
2024/03/08 10:22:19;;;;;;;67.15;60.13;;;6.40;99.90;;;;;;4976174;28;20499;-69
2024/03/08 10:24:47;;;;;;;68.43;61.10;;;6.40;99.90;;;;;;4974088;28;20149;-69
2024/03/08 10:27:15;;;;;;;65.80;58.53;;;6.40;99.90;;;;;;4974701;28;20050;-70
2024/03/08 10:29:44;;;;;;;68.55;59.08;;;6.30;99.90;;;;;;4972176;28;20070;-70
2024/03/08 10:32:11;;;;;;;67.28;59.95;;;6.10;99.90;;;;;;4975114;28;20129;-70
2024/03/08 10:34:38;;;;;;;69.80;61.00;;;6.30;99.90;;;;;;4968212;28;20582;-69
2024/03/08 10:37:10;;;;;;;65.63;58.60;;;6.50;99.90;;;;;;4965662;28;20450;-69
2024/03/08 10:39:37;;;;;;;64.88;57.88;;;6.60;99.90;;;;;;4965510;28;20422;-69
2024/03/08 10:42:05;;;;;;;68.75;61.63;;;6.60;99.90;;;;;;4973049;28;20049;-71
2024/03/08 10:44:56;;;;;;;67.43;60.22;;;6.70;99.90;;;;;;4963935;28;20129;-70
2024/03/08 10:47:30;;;;;;;62.05;55.83;;;7.00;99.90;;;;;;4972725;28;21300;-71
2024/03/08 10:50:16;;;;;;;58.67;52.35;;;6.80;99.90;;;;;;4969875;28;20057;-70
2024/03/08 10:52:44;;;;;;;60.10;53.72;;;6.80;99.90;;;;;;4978576;28;20193;-70
2024/03/08 10:55:13;;;;;;;61.38;55.03;;;6.60;99.90;;;;;;4968141;28;20046;-68
2024/03/08 10:57:41;;;;;;;63.75;57.30;;;6.60;99.90;;;;;;4967639;28;20058;-72
2024/03/08 11:00:11;;;;;;;63.88;57.13;;;6.70;99.90;;;;;;4968653;28;20129;-70
2024/03/08 11:02:38;;;;;;;63.22;56.38;;;6.80;99.90;;;;;;4952223;28;20046;-69
2024/03/08 11:05:13;;;;;;;66.88;59.72;;;7.00;99.90;;;;;;4966326;28;20065;-69
2024/03/08 11:07:43;;;;;;;60.03;53.15;;;6.80;99.90;;;;;;4966532;28;20149;-69
2024/03/08 11:10:20;;;;;;;59.72;53.30;;;6.90;99.90;;;;;;4970328;28;20049;-70
2024/03/08 11:12:48;;;;;;;63.40;56.58;;;6.80;99.90;;;;;;4971456;28;20091;-69
2024/03/08 11:15:18;;;;;;;57.38;51.45;;;6.80;99.90;;;;;;4967306;28;20074;-70
2024/03/08 11:17:49;;;;;;;65.40;58.33;;;6.80;99.90;;;;;;4968139;28;20180;-70
2024/03/08 11:20:23;;;;;;;67.20;58.85;;;6.90;99.90;;;;;;4988160;28;20058;-69
2024/03/08 11:23:01;;;;;;;61.67;55.43;;;7.10;99.90;;;;;;4974297;28;20049;-70
2024/03/08 11:25:36;;;;;;;58.65;52.88;;;7.20;99.90;;;;;;4961607;28;20049;-70
2024/03/08 11:28:23;;;;;;;;;;;7.10;99.90;;;;;;4973087;28;20137;-71
2024/03/08 11:30:59;;;;;;;61.70;55.03;;;7.20;99.90;;;;;;4962007;28;19925;-71
2024/03/08 11:33:29;;;;;;;62.58;55.85;;;7.20;99.90;;;;;;4968462;28;20047;-70
2024/03/08 11:36:24;;;;;;;59.40;53.30;;;7.20;99.90;;;;;;4968334;28;20594;-70
2024/03/08 11:38:52;;;;;;;56.17;50.38;;;7.20;99.90;;;;;;4964953;28;20173;-69
2024/03/08 11:41:22;;;;;;;59.63;53.28;;;7.00;99.90;;;;;;4956448;28;20057;-71
2024/03/08 11:44:01;;;;;;;58.08;51.85;;;7.10;99.90;;;;;;4974439;28;20253;-71
2024/03/08 11:46:29;;;;;;;63.88;57.13;;;7.20;99.90;;;;;;4965346;28;20546;-70
2024/03/08 11:48:56;;;;;;;59.78;53.08;;;7.30;99.90;;;;;;4972151;28;20057;-69
2024/03/08 11:51:24;;;;;;;59.17;53.08;;;7.60;99.90;;;;;;4969933;28;20047;-69
2024/03/08 11:53:51;;;;;;;62.83;56.10;;;7.10;99.90;;;;;;4969001;28;20051;-68
2024/03/08 11:56:21;;;;;;;64.10;57.45;;;7.00;99.90;;;;;;4963629;28;20395;-71
2024/03/08 11:58:59;;;;;;;64.75;58.33;;;7.20;99.90;;;;;;4978183;28;20053;-70
2024/03/08 12:01:27;;;;;;;62.38;55.78;;;7.30;99.90;;;;;;4954807;28;20054;-70
2024/03/08 12:03:58;;;;;;;59.40;53.25;;;7.10;99.90;;;;;;4954763;28;20741;-71
2024/03/08 12:06:36;;;;;;;61.92;55.33;;;7.20;99.90;;;;;;4963092;28;20049;-71
2024/03/08 12:09:03;;;;;;;59.78;53.45;;;7.20;99.90;;;;;;4977984;28;20061;-70
2024/03/08 12:11:31;;;;;;;65.68;58.83;;;7.30;99.90;;;;;;4969165;28;20050;-70
2024/03/08 12:14:02;;;;;;;60.20;53.97;;;7.30;99.90;;;;;;4969213;28;20141;-71
2024/03/08 12:16:29;;;;;;;59.40;53.30;;;7.60;99.90;;;;;;4961338;28;20685;-70
2024/03/08 12:18:57;;;;;;;56.45;50.85;;;7.90;99.90;;;;;;4960637;28;20039;-71
2024/03/08 12:21:29;;;;;;;63.60;57.03;;;7.70;99.90;;;;;;4965497;28;20049;-70
2024/03/08 12:24:10;;;;;;;60.30;53.78;;;7.50;99.90;;;;;;4974376;28;20050;-72
2024/03/08 12:26:40;;;;;;;54.83;49.00;;;7.70;99.90;;;;;;4970095;28;20140;-69
2024/03/08 12:29:22;;;;;;;56.70;50.78;;;7.50;99.90;;;;;;4957700;28;20161;-71
2024/03/08 12:32:02;;;;;;;61.50;55.00;;;7.70;99.90;;;;;;4957132;28;20054;-72
2024/03/08 12:34:29;;;;;;;63.08;56.55;;;7.70;99.90;;;;;;4963963;28;20050;-72
2024/03/08 12:36:57;;;;;;;62.92;56.47;;;7.90;99.90;;;;;;4967159;28;20751;-70
2024/03/08 12:39:26;;;;;;;55.42;49.83;;;7.90;99.90;;;;;;4957349;28;20189;-69
2024/03/08 12:41:56;;;;;;;57.10;51.25;;;7.90;99.90;;;;;;4953814;28;20049;-71
2024/03/08 12:44:25;;;;;;;56.33;50.08;;;8.00;99.90;;;;;;4961867;28;20053;-71
2024/03/08 12:46:53;;;;;;;55.50;49.72;;;8.00;99.90;;;;;;4961944;28;20256;-69
2024/03/08 12:49:22;;;;;;;58.60;52.55;;;8.20;99.90;;;;;;4968484;28;20054;-71